• Join FlightAware (Why Join?)
  • Login
  • US Flag 
05:36AM EDT


 

Airport Tracker/Info


-or-


 

Live Flight TrackerFlight Track Log ✈ DAL6140 ✈ 18-Apr-2013 ✈ CYUL - KLGA

Flight Track Log - Related Links

Times and Time Zones

All times are in EDT time to prevent confusion due to time zone crossing. See the DAL6140 flight status page for this flight to view local times or setup timezone preferences in your user account.

Time Position Orientation Groundspeed Altitude Reporting Facility
EDT Latitude Longitude Course Direction KTS MPH feet Rate Location/Type
05:52PM 45.4500 -73.7500 180° South 140 161 1,100  Level Montreal Center
05:53PM 45.4000 -73.8000 215° Southwest 170 196 3,900 2,160 Climbing Montreal Center
05:54PM 45.2159 -73.9172 207° Southwest  Level FlightAware Approximate
05:54PM 45.3667 -73.8167 199° South 210 242 5,500  Level Montreal Center
05:55PM 45.1314 -73.9776 207° Southwest  Level FlightAware Approximate
05:55PM 45.3000 -73.8500 199° South 230 265 8,100  Level Montreal Center
05:56PM 45.0468 -74.0380 207° Southwest  Level FlightAware Approximate
05:56PM 45.2333 -73.8667 190° South 250 288 10,400  Level Montreal Center
05:57PM 44.9693 -74.0833 180° South  Level FlightAware Approximate
05:57PM 45.1500 -73.8500 172° South 290 334 11,800  Level Montreal Center
05:58PM 45.0667 -73.8500 180° South 300 345 13,700 1,560 Climbing Montreal Center
05:59PM 44.9833 -73.8667 188° South 310 357 15,000 1,380 Climbing Montreal Center
06:00PM 44.9000 -73.8667 180° South 320 368 16,500 1,560 Climbing Montreal Center
06:01PM 44.8000 -73.8500 173° South 330 380 18,200 1,740 Climbing Montreal Center
06:02PM 44.7000 -73.8500 180° South 340 391 20,000 1,860 Climbing Montreal Center
06:03PM 44.6172 -73.8544 182° South 338 389 22,300 1,800 Climbing Boston Center
06:04PM 44.5278 -73.8553 180° South 331 381 24,000 1,620 Climbing Boston Center
06:05PM 44.4361 -73.8531 179° South 326 375 25,700 960 Climbing Boston Center
06:06PM 44.3403 -73.8478 178° South 332 382 26,000 120 Climbing Boston Center
06:07PM 44.2319 -73.8453 179° South 364 419 26,000  Level Boston Center
06:08PM 44.1089 -73.8425 179° South 400 460 26,000  Level Boston Center
06:09PM 43.9944 -73.8397 179° South 414 476 26,000 -60 Level Boston Center
06:10PM 43.8903 -73.8344 178° South 419 482 25,900  Descending Boston Center
06:11PM 43.7736 -73.8317 179° South 419 482 26,000  Climbing Boston Center
06:12PM 43.6569 -73.8289 179° South 419 482 26,000  Level Boston Center
06:13PM 43.5383 -73.8264 179° South 419 482 26,000  Level Boston Center
06:14PM 43.4194 -73.8208 178° South 419 482 26,000 -720 Level Boston Center
06:15PM 43.2903 -73.8206 180° South 426 490 24,600 -1,260 Descending Boston Center
06:16PM 43.1756 -73.8181 179° South 421 484 23,500 -1,080 Descending Boston Center
06:17PM 43.0631 -73.8156 179° South 415 478 22,500 -840 Descending Boston Center
06:18PM 42.9528 -73.8131 179° South 409 471 21,900 -300 Descending Boston Center
06:19PM 42.8464 -73.8078 178° South 398 458 21,900  Level Boston Center
06:20PM 42.7381 -73.8056 179° South 393 452 22,000  Climbing Boston Center
06:21PM 42.6300 -73.7833 171° South 388 447 22,000  Level Boston Center
06:22PM 42.5406 -73.7644 171° South 383 441 22,000  Level Boston Center
06:23PM 42.4367 -73.7425 171° South 378 435 22,000 -720 Level Boston Center
06:24PM 42.3347 -73.7208 171° South 378 435 20,600 -1,440 Descending Boston Center
06:25PM 42.2475 -73.7050 172° South 363 418 19,200 -1,320 Descending Boston Center
06:26PM 42.1264 -73.7194 185° South 363 418 18,000 -600 Descending Boston Center
06:27PM 42.0283 -73.7286 184° South 368 423 18,000 -60 Level Boston Center
06:28PM 41.9281 -73.7406 185° South 368 423 17,900 -720 Descending Boston Center
06:29PM 41.8364 -73.7497 184° South 367 422 16,600 -1,800 Descending Boston Center
06:30PM 41.7361 -73.7589 184° South 353 406 14,400 -1,980 Descending Boston Center
06:31PM 41.6589 -73.7683 185° South 326 375 12,600 -1,920 Descending Boston Center
06:32PM 41.5500 -73.7833 186° South 271 312 10,200 -1,560 Descending New York TRACON
06:33PM 41.4833 -73.7833 180° South 255 293 9,200 -1,020 Descending New York TRACON
06:34PM 41.4167 -73.7833 180° South 245 282 8,200 -600 Descending New York TRACON
06:35PM 41.3500 -73.8000 191° South 238 274 8,000 -120 Descending New York TRACON
06:36PM 41.2833 -73.7500 151° Southeast 251 289 8,000  Level New York TRACON
06:37PM 41.2167 -73.7000 151° Southeast 260 299 8,000 -600 Level New York TRACON
06:38PM 41.1667 -73.6500 143° Southeast 254 292 6,900 -1,560 Descending New York TRACON
06:39PM 41.1000 -73.6167 159° South 235 270 4,900 -1,500 Descending New York TRACON
06:40PM 41.0667 -73.6500 217° Southwest 218 251 4,000 -600 Descending New York TRACON
06:41PM 41.0000 -73.6833 201° Southwest 230 265 3,800 -480 Descending New York TRACON
06:42PM 40.9500 -73.7333 217° Southwest 225 259 3,000 -540 Descending New York TRACON
06:43PM 40.9000 -73.7833 217° Southwest 183 211 2,700 -300 Descending New York TRACON